Time;durP1;ratioP1;P1;durP2;ratioP2;P2;SDS_P1;SDS_P2;PMS_P1;PMS_P2;Temp;Humidity;BMP_temperature;BMP_pressure;BME280_temperature;BME280_humidity;BME280_pressure;Samples;Min_cycle;Max_cycle;Signal;HPM_P1;HPM_P2
2023/05/12 00:01:36;;;;;;;9.95;7.15;;;;;;;11.94;100.00;101604.72;4957028;29;20101;-73
2023/05/12 00:04:01;;;;;;;10.32;7.13;;;;;;;11.93;100.00;101599.66;4957080;29;20118;-74
2023/05/12 00:06:27;;;;;;;10.63;7.18;;;;;;;11.93;100.00;101594.47;4957041;29;20028;-73
2023/05/12 00:08:52;;;;;;;10.63;7.97;;;;;;;11.95;100.00;101593.47;4956854;29;20034;-73
2023/05/12 00:11:17;;;;;;;12.70;8.02;;;;;;;11.95;100.00;101605.56;4956829;29;20027;-75
2023/05/12 00:13:43;;;;;;;10.77;7.53;;;;;;;11.89;100.00;101598.13;4956684;29;20027;-74
2023/05/12 00:16:08;;;;;;;11.00;7.72;;;;;;;11.85;100.00;101599.25;4956863;29;20054;-74
2023/05/12 00:18:34;;;;;;;11.27;8.00;;;;;;;11.75;100.00;101598.88;4956667;29;20082;-73
2023/05/12 00:21:00;;;;;;;9.68;7.25;;;;;;;11.75;100.00;101604.88;4956686;29;20027;-73
2023/05/12 00:23:25;;;;;;;8.85;7.28;;;;;;;11.71;100.00;101600.81;4956570;29;20554;-74
2023/05/12 00:25:50;;;;;;;11.35;8.25;;;;;;;11.68;100.00;101600.13;4956595;29;20031;-74
2023/05/12 00:28:17;;;;;;;12.43;8.50;;;;;;;11.52;100.00;101582.06;4956634;29;20438;-73
2023/05/12 00:30:42;;;;;;;11.88;8.45;;;;;;;11.58;100.00;101598.97;4956573;29;20031;-73
2023/05/12 00:33:07;;;;;;;10.15;8.40;;;;;;;11.55;100.00;101599.97;4956438;29;20475;-73
2023/05/12 00:35:33;;;;;;;11.65;8.73;;;;;;;11.50;100.00;101594.22;4956305;29;20027;-73
2023/05/12 00:37:58;;;;;;;11.35;8.77;;;;;;;11.41;100.00;101586.97;4956360;29;20035;-73
2023/05/12 00:40:23;;;;;;;11.07;8.88;;;;;;;11.47;100.00;101597.81;4956061;29;20035;-72
2023/05/12 00:42:49;;;;;;;12.02;8.98;;;;;;;11.47;100.00;101591.81;4956286;29;20027;-72
2023/05/12 00:45:14;;;;;;;10.55;8.40;;;;;;;11.47;100.00;101597.81;4955656;28;20107;-73
2023/05/12 00:47:39;;;;;;;11.43;9.10;;;;;;;11.41;100.00;101597.31;4956299;29;20114;-73
2023/05/12 00:50:06;;;;;;;13.10;9.18;;;;;;;11.39;100.00;101592.22;4956187;29;20039;-73
2023/05/12 00:52:32;;;;;;;11.38;9.48;;;;;;;11.34;100.00;101580.47;4956076;29;20026;-73
2023/05/12 00:54:59;;;;;;;12.07;9.75;;;;;;;11.32;100.00;101575.38;4956159;29;20035;-73
2023/05/12 00:57:26;;;;;;;13.18;9.48;;;;;;;11.39;100.00;101587.03;4955952;29;20035;-73
2023/05/12 00:59:52;;;;;;;12.57;10.02;;;;;;;11.39;100.00;101574.09;4956020;29;20431;-73
2023/05/12 01:02:17;;;;;;;12.98;9.90;;;;;;;11.20;100.00;101545.00;4955841;29;20023;-74
2023/05/12 01:04:42;;;;;;;13.23;10.35;;;;;;;11.44;100.00;101579.03;4955748;29;20057;-73
2023/05/12 01:07:08;;;;;;;13.43;10.18;;;;;;;11.46;100.00;101585.78;4955836;29;20031;-73
2023/05/12 01:09:34;;;;;;;13.95;10.52;;;;;;;11.44;100.00;101576.47;4955815;29;20043;-73
2023/05/12 01:12:00;;;;;;;14.80;10.55;;;;;;;11.36;100.00;101563.09;4955737;29;20498;-74
2023/05/12 01:14:25;;;;;;;14.65;11.38;;;;;;;11.42;100.00;101568.78;4955653;29;20031;-75
2023/05/12 01:16:52;;;;;;;13.02;11.57;;;;;;;11.26;100.00;101546.44;4955673;29;20082;-73
2023/05/12 01:19:33;;;;;;;14.90;10.60;;;;;;;11.21;100.00;101549.28;4955443;29;20468;-74
2023/05/12 01:21:59;;;;;;;14.17;11.10;;;;;;;11.17;100.00;101540.00;4955673;29;20042;-73
2023/05/12 01:24:28;;;;;;;15.57;11.40;;;;;;;11.34;100.00;101576.13;4955578;29;20472;-73
2023/05/12 01:26:53;;;;;;;13.93;11.02;;;;;;;11.22;100.00;101556.09;4955262;29;20027;-73
2023/05/12 01:29:21;;;;;;;15.32;11.15;;;;;;;11.13;100.00;101562.59;4955423;29;20114;-73
2023/05/12 01:31:47;;;;;;;16.73;10.15;;;;;;;11.08;100.00;101566.34;4955431;29;20431;-75
2023/05/12 01:34:17;;;;;;;12.93;9.52;;;;;;;10.93;100.00;101555.06;4955071;29;20456;-74
2023/05/12 01:36:43;;;;;;;13.75;10.20;;;;;;;10.85;100.00;101563.22;4955485;29;20061;-74
2023/05/12 01:39:08;;;;;;;14.20;10.48;;;;;;;10.83;100.00;101564.22;4955262;29;20055;-75
2023/05/12 01:41:34;;;;;;;13.93;10.68;;;;;;;10.78;100.00;101559.28;4955267;29;20031;-75
2023/05/12 01:43:59;;;;;;;13.27;9.82;;;;;;;10.77;100.00;101564.53;4955273;29;20070;-74
2023/05/12 01:46:24;;;;;;;15.05;10.00;;;;;;;10.63;100.00;101542.84;4955150;29;20050;-74
2023/05/12 01:48:50;;;;;;;14.98;10.45;;;;;;;10.71;100.00;101564.84;4954862;29;20498;-83
2023/05/12 01:51:15;;;;;;;15.48;10.70;;;;;;;10.71;100.00;101555.34;4954997;29;20035;-80
2023/05/12 01:53:41;;;;;;;15.02;10.80;;;;;;;10.57;100.00;101530.25;4955124;29;20106;-74
2023/05/12 01:56:06;;;;;;;14.88;10.52;;;;;;;10.72;100.00;101563.94;4954125;28;20122;-74
2023/05/12 01:58:31;;;;;;;14.27;10.80;;;;;;;10.62;100.00;101548.94;4954758;29;20097;-81
2023/05/12 02:00:57;;;;;;;14.38;10.25;;;;;;;10.65;100.00;101549.69;4954825;29;20031;-75
2023/05/12 02:03:22;;;;;;;12.73;8.80;;;;;;;10.36;100.00;101521.00;4954860;29;20023;-77
2023/05/12 02:05:47;;;;;;;13.45;9.20;;;;;;;10.58;100.00;101555.16;4955084;29;20030;-74
2023/05/12 02:08:13;;;;;;;13.32;8.85;;;;;;;10.58;100.00;101552.56;4955114;29;20027;-74
2023/05/12 02:10:38;;;;;;;12.13;8.13;;;;;;;10.54;100.00;101552.81;4954847;29;20162;-74
2023/05/12 02:13:03;;;;;;;12.27;8.27;;;;;;;10.34;100.00;101522.84;4954587;29;20034;-74
2023/05/12 02:15:29;;;;;;;11.82;7.82;;;;;;;10.49;100.00;101545.28;4954517;29;20035;-74
2023/05/12 02:17:54;;;;;;;12.20;7.63;;;;;;;10.45;100.00;101538.63;4954772;29;20034;-81
2023/05/12 02:20:19;;;;;;;12.43;7.88;;;;;;;10.41;100.00;101547.41;4954539;29;20034;-80
2023/05/12 02:22:45;;;;;;;11.57;8.20;;;;;;;10.42;100.00;101535.34;4954842;29;20055;-79
2023/05/12 02:25:10;;;;;;;12.50;8.20;;;;;;;10.42;100.00;101545.66;4937341;29;20043;-76
2023/05/12 02:27:35;;;;;;;11.00;7.47;;;;;;;10.36;100.00;101533.09;4954541;29;20034;-79
2023/05/12 02:30:01;;;;;;;11.07;7.18;;;;;;;10.35;100.00;101529.69;4954518;29;20468;-79
2023/05/12 02:32:27;;;;;;;10.77;7.10;;;;;;;10.29;100.00;101523.06;4954603;29;20076;-78
2023/05/12 02:34:54;;;;;;;12.38;7.35;;;;;;;10.35;100.00;101532.25;4954543;29;20027;-80
2023/05/12 02:37:20;;;;;;;10.55;7.25;;;;;;;10.39;100.00;101538.09;4954743;29;20030;-80
2023/05/12 02:39:45;;;;;;;11.05;6.75;;;;;;;10.43;100.00;101529.28;4954575;29;20027;-74
2023/05/12 02:42:10;;;;;;;11.15;6.93;;;;;;;10.33;100.00;101511.69;4954491;29;20428;-81
2023/05/12 02:44:36;;;;;;;11.13;6.68;;;;;;;10.43;100.00;101524.97;4954332;29;20023;-74
2023/05/12 02:47:01;;;;;;;9.88;6.55;;;;;;;10.39;100.00;101523.44;4954381;29;20027;-80
2023/05/12 02:49:27;;;;;;;12.30;7.68;;;;;;;10.39;100.00;101522.59;4954481;29;20055;-81
2023/05/12 02:51:53;;;;;;;9.70;6.13;;;;;;;10.39;100.00;101513.09;4954307;29;20071;-80
2023/05/12 02:54:20;;;;;;;10.13;6.10;;;;;;;10.40;100.00;101509.59;4954594;29;20078;-81
2023/05/12 02:56:45;;;;;;;9.70;6.47;;;;;;;10.32;100.00;101501.41;4954395;29;20051;-80
2023/05/12 02:59:11;;;;;;;9.68;6.35;;;;;;;10.37;100.00;101509.78;4954077;29;20490;-78
2023/05/12 03:01:36;;;;;;;9.27;6.35;;;;;;;10.37;100.00;101501.19;4954267;29;20046;-75
2023/05/12 03:04:01;;;;;;;9.75;5.93;;;;;;;10.21;100.00;101486.44;4954346;29;20036;-78
2023/05/12 03:06:27;;;;;;;9.88;6.00;;;;;;;10.33;100.00;101506.53;4954255;29;20038;-76
2023/05/12 03:08:54;;;;;;;10.45;6.15;;;;;;;10.34;100.00;101504.78;4957387;28;20035;-77
2023/05/12 03:11:21;;;;;;;9.73;6.30;;;;;;;10.35;100.00;101506.44;4957979;29;20023;-79
2023/05/12 03:13:46;;;;;;;9.85;6.53;;;;;;;10.34;100.00;101500.44;4957827;29;20523;-75
2023/05/12 03:16:11;;;;;;;11.63;7.00;;;;;;;10.35;100.00;101501.28;4957931;29;20110;-77
2023/05/12 03:18:36;;;;;;;10.93;6.55;;;;;;;10.29;100.00;101488.69;4957860;29;20050;-79
2023/05/12 03:21:02;;;;;;;11.00;6.65;;;;;;;10.30;100.00;101504.06;4969822;28;20407;-78
2023/05/12 03:23:27;;;;;;;18.27;7.05;;;;;;;10.26;100.00;101500.00;4976965;28;20030;-78
2023/05/12 03:25:54;;;;;;;12.00;7.05;;;;;;;10.29;100.00;101502.41;4977137;28;20030;-75
2023/05/12 03:28:21;;;;;;;12.40;7.47;;;;;;;10.28;100.00;101495.59;4976936;28;20031;-74
2023/05/12 03:30:47;;;;;;;12.13;7.15;;;;;;;10.31;100.00;101495.41;4977005;28;20042;-78
2023/05/12 03:33:12;;;;;;;14.20;7.78;;;;;;;10.30;100.00;101498.09;4977020;28;20574;-77
2023/05/12 03:35:37;;;;;;;14.23;8.07;;;;;;;10.02;100.00;101454.75;4976987;28;20027;-76
2023/05/12 03:38:03;;;;;;;13.32;8.10;;;;;;;10.29;100.00;101489.50;4976635;28;20467;-78
2023/05/12 03:40:28;;;;;;;14.50;8.55;;;;;;;10.26;100.00;101491.41;4976536;28;20038;-76
2023/05/12 03:42:53;;;;;;;16.58;9.15;;;;;;;10.27;100.00;101493.91;4976585;28;20066;-76
2023/05/12 03:45:19;;;;;;;16.23;8.32;;;;;;;10.31;100.00;101494.59;4976814;28;20134;-78
2023/05/12 03:47:44;;;;;;;16.42;9.45;;;;;;;10.31;100.00;101482.50;4976730;28;20105;-75
2023/05/12 03:50:10;;;;;;;16.33;9.48;;;;;;;10.32;100.00;101486.78;4976665;28;20467;-79
2023/05/12 03:52:37;;;;;;;19.67;10.75;;;;;;;10.20;100.00;101468.47;4976435;28;20104;-78
2023/05/12 03:55:04;;;;;;;17.98;9.52;;;;;;;10.23;100.00;101466.59;4976073;28;20146;-84
2023/05/12 03:57:29;;;;;;;17.92;10.68;;;;;;;10.34;100.00;101487.53;4976677;28;20023;-75
2023/05/12 03:59:55;;;;;;;21.23;10.88;;;;;;;10.37;100.00;101478.78;4976229;28;20030;-76
2023/05/12 04:02:20;;;;;;;18.45;10.90;;;;;;;10.30;100.00;101469.69;4976512;28;20078;-76
2023/05/12 04:04:45;;;;;;;22.08;11.30;;;;;;;10.22;100.00;101464.06;4976490;28;20105;-74
2023/05/12 04:07:11;;;;;;;19.85;11.35;;;;;;;10.23;100.00;101452.88;4976118;28;20027;-82
2023/05/12 04:09:36;;;;;;;22.52;13.18;;;;;;;10.27;100.00;101465.53;4958935;28;20035;-80
2023/05/12 04:12:01;;;;;;;26.13;12.40;;;;;;;10.21;100.00;101458.06;4976208;28;20027;-84
2023/05/12 04:14:27;;;;;;;28.23;13.13;;;;;;;10.21;100.00;101452.88;4976063;28;20030;-82
2023/05/12 04:16:52;;;;;;;24.92;13.43;;;;;;;10.30;100.00;101465.34;4976188;28;20022;-85
2023/05/12 04:19:17;;;;;;;25.63;12.73;;;;;;;10.33;100.00;101472.97;4975189;28;20065;-81
2023/05/12 04:21:43;;;;;;;26.95;14.75;;;;;;;10.29;100.00;101463.69;4975967;28;20027;-83
2023/05/12 04:24:09;;;;;;;25.95;14.75;;;;;;;10.25;100.00;101458.78;4976070;28;20026;-81
2023/05/12 04:26:34;;;;;;;25.88;14.00;;;;;;;10.40;100.00;101477.78;4975920;28;20015;-81
2023/05/12 04:28:59;;;;;;;30.92;14.57;;;;;;;10.37;100.00;101467.63;4975843;28;20077;-74
2023/05/12 04:31:25;;;;;;;32.25;15.40;;;;;;;10.41;100.00;101469.97;4976111;28;20019;-75
2023/05/12 04:33:50;;;;;;;33.85;17.10;;;;;;;10.42;100.00;101481.13;4975997;28;20049;-73
2023/05/12 04:36:16;;;;;;;32.10;15.70;;;;;;;10.44;100.00;101484.47;4976044;28;20027;-73
2023/05/12 04:38:41;;;;;;;32.35;16.33;;;;;;;10.30;100.00;101456.78;4975779;28;20034;-73
2023/05/12 04:41:06;;;;;;;35.83;17.05;;;;;;;10.41;100.00;101469.13;4975538;28;20121;-74
2023/05/12 04:43:32;;;;;;;38.42;18.88;;;;;;;10.41;100.00;101482.03;4975365;28;20026;-72
2023/05/12 04:45:57;;;;;;;38.60;18.38;;;;;;;10.26;100.00;101434.63;4975732;28;20101;-74
2023/05/12 04:48:23;;;;;;;37.22;20.35;;;;;;;10.45;100.00;101474.06;4975663;28;20053;-74
2023/05/12 04:50:48;;;;;;;37.67;19.30;;;;;;;10.35;100.00;101465.13;4975550;28;20488;-73
2023/05/12 04:53:16;;;;;;;43.60;20.45;;;;;;;10.51;100.00;101483.22;4975560;28;20114;-74
2023/05/12 04:55:44;;;;;;;42.28;21.48;;;;;;;10.47;100.00;101476.56;4975142;28;20038;-73
2023/05/12 04:58:11;;;;;;;46.35;21.38;;;;;;;10.52;100.00;101487.47;4975542;28;20550;-74
2023/05/12 05:00:37;;;;;;;41.88;21.00;;;;;;;10.53;100.00;101487.41;4975131;28;20031;-73
2023/05/12 05:03:02;;;;;;;43.88;20.52;;;;;;;10.49;100.00;101480.72;4975298;28;20037;-74
2023/05/12 05:05:28;;;;;;;44.25;21.98;;;;;;;10.58;100.00;101488.00;4975155;28;20026;-74
2023/05/12 05:07:53;;;;;;;46.92;23.40;;;;;;;10.60;100.00;101498.25;4975214;28;20022;-74
2023/05/12 05:10:18;;;;;;;45.40;22.48;;;;;;;10.61;100.00;101490.41;4974924;28;20113;-75
2023/05/12 05:12:43;;;;;;;51.97;23.45;;;;;;;10.67;100.00;101497.00;4974881;28;20170;-73
2023/05/12 05:15:10;;;;;;;45.33;24.08;;;;;;;10.55;100.00;101475.25;4974888;28;20037;-74
2023/05/12 05:17:36;;;;;;;51.33;25.42;;;;;;;10.62;100.00;101486.94;4975011;28;20390;-75
2023/05/12 05:20:01;;;;;;;51.30;24.38;;;;;;;10.75;100.00;101500.03;4975100;28;20039;-74
2023/05/12 05:22:26;;;;;;;52.58;25.83;;;;;;;10.77;100.00;101508.53;4974911;28;20031;-78
2023/05/12 05:24:52;;;;;;;46.63;25.50;;;;;;;10.79;100.00;101498.13;4974917;28;20033;-73
2023/05/12 05:27:17;;;;;;;49.83;24.73;;;;;;;10.74;100.00;101492.38;4974842;28;20031;-74
2023/05/12 05:29:43;;;;;;;52.53;26.42;;;;;;;10.71;100.00;101485.59;4974659;28;20031;-76
2023/05/12 05:32:08;;;;;;;49.47;25.00;;;;;;;10.88;100.00;101510.53;4974574;28;20027;-74
2023/05/12 05:34:33;;;;;;;50.53;25.63;;;;;;;10.92;100.00;101517.25;4974860;28;20031;-74
2023/05/12 05:36:59;;;;;;;49.55;24.35;;;;;;;10.77;100.00;101490.44;4974781;28;20102;-75
2023/05/12 05:39:24;;;;;;;50.55;25.38;;;;;;;10.93;100.00;101508.56;4974674;28;20034;-74
2023/05/12 05:41:49;;;;;;;51.08;24.88;;;;;;;11.01;100.00;101523.63;4974346;28;20058;-74
2023/05/12 05:44:15;;;;;;;49.33;26.38;;;;;;;10.98;100.00;101505.72;4974592;28;20031;-83
2023/05/12 05:46:40;;;;;;;54.67;26.13;;;;;;;10.98;100.00;101509.13;4974327;28;20034;-76
2023/05/12 05:49:06;;;;;;;51.95;26.58;;;;;;;11.14;100.00;101529.84;4974402;28;20167;-84
2023/05/12 05:51:32;;;;;;;50.55;26.70;;;;;;;11.17;100.00;101527.06;4974450;28;20406;-77
2023/05/12 05:53:57;;;;;;;52.58;27.65;;;;;;;11.22;100.00;101530.25;4974413;28;20050;-82
2023/05/12 05:56:23;;;;;;;51.97;25.60;;;;;;;11.28;100.00;101534.25;4974082;28;20054;-75
2023/05/12 05:58:48;;;;;;;54.17;27.20;;;;;;;11.32;100.00;101533.16;4974164;28;20034;-75
2023/05/12 06:01:14;;;;;;;51.03;27.50;;;;;;;11.39;100.00;101531.91;4974088;28;20022;-75
2023/05/12 06:03:39;;;;;;;57.95;28.92;;;;;;;11.69;100.00;101543.13;4974141;28;20022;-80
2023/05/12 06:06:05;;;;;;;57.03;30.88;;;;;;;11.85;100.00;101529.38;4974301;28;20076;-78
2023/05/12 06:08:30;;;;;;;59.47;30.30;;;;;;;12.18;100.00;101548.13;4974221;28;20445;-75
2023/05/12 06:10:56;;;;;;;56.85;28.88;;;;;;;12.54;100.00;101549.47;4974057;28;20027;-75
2023/05/12 06:13:21;;;;;;;47.78;28.80;;;;;;;12.84;100.00;101539.03;4955908;28;20123;-78
2023/05/12 06:15:46;;;;;;;43.20;27.35;;;;;;;13.34;100.00;101556.66;4973766;28;20061;-84
2023/05/12 06:18:12;;;;;;;38.63;25.88;;;;;;;13.61;100.00;101558.44;4974243;28;20066;-82
2023/05/12 06:20:37;;;;;;;38.53;25.23;;;;;;;13.90;100.00;101562.59;4974103;28;20110;-88
2023/05/12 06:23:02;;;;;;;37.75;23.67;;;;;;;14.11;100.00;101575.91;4973984;28;20070;-83
2023/05/12 06:25:28;;;;;;;33.22;23.88;;;;;;;14.21;100.00;101551.00;4936468;28;20399;-83
2023/05/12 06:27:53;;;;;;;29.65;22.10;;;;;;;14.45;100.00;101579.72;4936506;29;20528;-88
2023/05/12 06:30:18;;;;;;;29.45;21.20;;;;;;;14.33;100.00;101594.34;4934971;29;20032;-86
2023/05/12 06:32:44;;;;;;;28.35;20.60;;;;;;;14.02;100.00;101574.75;4935430;29;20086;-86
2023/05/12 06:35:09;;;;;;;25.15;18.90;;;;;;;13.93;100.00;101585.75;4935177;29;20023;-86
2023/05/12 06:37:35;;;;;;;24.35;19.85;;;;;;;13.62;100.00;101547.13;4935234;29;20098;-74
2023/05/12 06:40:00;;;;;;;24.92;20.00;;;;;;;13.80;100.00;101573.66;4935204;29;20027;-74
2023/05/12 06:42:25;;;;;;;22.50;19.30;;;;;;;13.79;100.00;101580.63;4936197;29;20031;-86
2023/05/12 06:44:51;;;;;;;26.48;20.90;;;;;;;13.71;100.00;101586.31;4939094;29;20086;-76
2023/05/12 06:47:16;;;;;;;23.40;18.17;;;;;;;13.88;100.00;101598.22;4937781;29;20031;-77
2023/05/12 06:49:41;;;;;;;23.40;18.65;;;;;;;14.08;100.00;101596.91;4939245;29;20499;-84
2023/05/12 06:52:06;;;;;;;23.33;18.42;;;;;;;13.99;100.00;101590.56;4939028;29;20078;-82
2023/05/12 06:54:32;;;;;;;21.10;18.13;;;;;;;14.08;100.00;101607.31;4939000;29;20476;-78
2023/05/12 06:56:58;;;;;;;22.55;18.80;;;;;;;14.17;100.00;101606.69;4938821;29;20492;-79
2023/05/12 06:59:23;;;;;;;19.92;16.85;;;;;;;14.31;100.00;101611.81;4938845;29;20051;-73
2023/05/12 07:01:49;;;;;;;21.38;17.88;;;;;;;14.47;100.00;101610.84;4938180;29;20036;-83
2023/05/12 07:04:14;;;;;;;20.42;17.05;;;;;;;14.42;100.00;101589.47;4938831;29;20027;-74
2023/05/12 07:06:39;;;;;;;20.73;16.48;;;;;;;14.69;100.00;101607.63;4938896;29;20027;-81
2023/05/12 07:09:05;;;;;;;17.88;15.75;;;;;;;14.68;100.00;101608.56;4938788;29;20032;-81
2023/05/12 07:11:30;;;;;;;18.58;14.10;;;;;;;14.64;100.00;101626.94;4938600;29;20079;-80
2023/05/12 07:13:55;;;;;;;18.67;15.23;;;;;;;14.63;100.00;101627.03;4938618;29;20032;-77
2023/05/12 07:16:21;;;;;;;17.48;14.70;;;;;;;14.63;100.00;101595.84;4938344;29;20111;-82
2023/05/12 07:18:46;;;;;;;17.98;13.95;;;;;;;14.92;100.00;101625.91;4938648;29;20084;-79
2023/05/12 07:21:12;;;;;;;15.82;13.32;;;;;;;15.16;100.00;101606.97;4938438;29;20428;-81
2023/05/12 07:23:38;;;;;;;17.85;12.82;;;;;;;15.46;100.00;101623.00;4938567;29;20119;-78
2023/05/12 07:26:04;;;;;;;14.07;12.00;;;;;;;15.44;100.00;101618.88;4938516;29;20036;-80
2023/05/12 07:28:34;;;;;;;13.50;11.27;;;;;;;15.62;100.00;101606.31;4938001;29;20028;-78
2023/05/12 07:30:59;;;;;;;16.35;12.10;;;;;;;15.96;100.00;101604.72;4938185;29;20078;-80
2023/05/12 07:33:25;;;;;;;13.88;11.50;;;;;;;16.05;97.86;101601.44;4938024;29;20051;-84
2023/05/12 07:35:50;;;;;;;12.88;10.05;;;;;;;16.13;97.72;101626.94;4938566;29;20114;-79
2023/05/12 07:38:16;;;;;;;12.85;9.98;;;;;;;16.04;96.35;101594.56;4938510;29;20062;-80
2023/05/12 07:40:41;;;;;;;11.77;9.98;;;;;;;16.08;98.09;101619.44;4938242;29;20031;-81
2023/05/12 07:43:07;;;;;;;11.57;9.55;;;;;;;15.95;95.91;101601.28;4938332;29;20102;-82
2023/05/12 07:45:32;;;;;;;11.18;8.60;;;;;;;15.93;98.63;101607.56;4938315;29;20042;-80
2023/05/12 07:47:57;;;;;;;11.77;9.30;;;;;;;16.08;96.95;101622.06;4937764;29;20476;-82
2023/05/12 07:50:24;;;;;;;9.57;7.45;;;;;;;15.96;92.68;101636.81;4938032;29;20032;-85
2023/05/12 07:52:51;;;;;;;10.63;8.20;;;;;;;15.97;93.34;101635.88;4938181;29;20024;-77
2023/05/12 07:55:19;;;;;;;10.18;7.78;;;;;;;15.91;92.04;101617.22;4936620;29;20039;-87
2023/05/12 07:57:44;;;;;;;9.13;7.63;;;;;;;15.90;89.24;101655.47;4938068;29;20040;-87
2023/05/12 08:00:10;;;;;;;9.50;8.20;;;;;;;15.94;90.51;101627.44;4937981;29;20399;-78
2023/05/12 08:02:36;;;;;;;9.70;8.57;;;;;;;16.11;94.73;101619.22;4937796;29;20051;-75
2023/05/12 08:05:02;;;;;;;8.98;8.07;;;;;;;16.43;89.43;101647.28;4937986;29;20408;-81
2023/05/12 08:07:27;;;;;;;9.23;8.18;;;;;;;16.69;90.17;101640.13;4937621;29;20079;-85
2023/05/12 08:09:54;;;;;;;11.07;8.60;;;;;;;16.89;89.55;101648.09;4937882;29;20039;-83
2023/05/12 08:12:19;;;;;;;9.10;8.20;;;;;;;17.11;89.37;101643.88;4938002;29;20023;-80
2023/05/12 08:14:44;;;;;;;11.00;7.72;;;;;;;16.68;86.17;101612.38;4937769;29;20030;-86
2023/05/12 08:17:10;;;;;;;8.30;7.40;;;;;;;16.54;85.69;101642.94;4937639;29;20428;-82
2023/05/12 08:19:35;;;;;;;9.05;7.22;;;;;;;16.61;87.11;101644.09;4938018;29;20376;-88
2023/05/12 08:22:01;;;;;;;8.35;7.43;;;;;;;16.80;87.20;101659.22;4937440;29;20059;-80
2023/05/12 08:24:27;;;;;;;11.18;7.90;;;;;;;16.84;87.89;101649.41;4937897;29;20035;-83
2023/05/12 08:26:52;;;;;;;8.43;6.60;;;;;;;16.74;87.96;101638.84;4938172;29;20032;-80
2023/05/12 08:29:17;;;;;;;7.75;6.15;;;;;;;16.92;86.81;101658.31;4937865;29;20475;-87
2023/05/12 08:31:43;;;;;;;7.40;6.32;;;;;;;17.16;84.82;101634.72;4937513;29;20428;-92
2023/05/12 08:34:09;;;;;;;9.23;5.90;;;;;;;17.49;81.64;101652.09;4937555;29;20468;-87
2023/05/12 08:36:34;;;;;;;7.30;6.30;;;;;;;17.89;81.39;101659.41;4937860;29;20040;-92
2023/05/12 08:39:01;;;;;;;6.88;5.63;;;;;;;18.23;80.82;101643.59;4937551;29;20090;-85
2023/05/12 08:41:46;;;;;;;6.13;4.70;;;;;;;18.71;78.91;101664.88;4937473;29;20036;-80
2023/05/12 08:44:12;;;;;;;5.93;3.95;;;;;;;18.72;75.13;101666.53;4924918;29;20040;-86
2023/05/12 08:46:38;;;;;;;6.35;4.40;;;;;;;18.38;72.92;101624.03;4941762;29;20468;-83
2023/05/12 08:49:05;;;;;;;5.95;4.50;;;;;;;18.55;72.99;101675.75;4942288;29;20031;-80
2023/05/12 08:51:31;;;;;;;6.18;4.07;;;;;;;18.40;74.15;101669.19;4937477;29;20122;-74
2023/05/12 08:53:57;;;;;;;5.35;4.03;;;;;;;18.33;73.81;101675.88;4938138;29;20035;-74
2023/05/12 08:56:23;;;;;;;6.05;3.97;;;;;;;18.23;74.10;101644.44;4937428;29;20440;-74
2023/05/12 08:58:49;;;;;;;6.38;4.50;;;;;;;18.28;72.58;101664.97;4937322;29;20035;-76
2023/05/12 09:01:16;;;;;;;5.95;4.45;;;;;;;18.41;76.46;101668.25;4937055;29;20476;-88
2023/05/12 09:03:41;;;;;;;6.20;4.30;;;;;;;18.55;74.25;101669.69;4938100;29;20480;-92
2023/05/12 09:06:08;;;;;;;6.90;4.07;;;;;;;18.52;75.08;101668.19;4939350;29;20024;-84
2023/05/12 09:08:35;;;;;;;6.45;4.43;;;;;;;18.58;72.98;101677.28;4945197;28;20364;-75
2023/05/12 09:11:01;;;;;;;6.63;4.43;;;;;;;18.61;73.15;101677.88;4956031;29;20109;-75
2023/05/12 09:13:48;;;;;;;7.03;4.63;;;;;;;18.67;74.46;101691.41;4955853;29;20534;-76
2023/05/12 09:16:17;;;;;;;5.43;4.30;;;;;;;18.61;74.14;101695.38;4955652;29;20110;-87
2023/05/12 09:18:56;;;;;;;6.55;4.35;;;;;;;18.60;73.38;101680.63;4955259;29;20157;-87
2023/05/12 09:21:22;;;;;;;5.57;3.72;;;;;;;18.64;74.06;101689.88;4955673;29;20105;-79
2023/05/12 09:24:14;;;;;;;5.75;3.72;;;;;;;19.01;76.26;101687.63;4955749;29;20098;-85
2023/05/12 09:26:53;;;;;;;;;;;;;;;19.21;70.27;101680.69;4950929;28;20040;-75
2023/05/12 09:29:19;;;;;;;4.38;3.20;;;;;;;18.76;69.15;101667.09;4936564;29;20018;-87
2023/05/12 09:31:52;;;;;;;5.53;2.70;;;;;;;18.55;67.67;101667.91;4936781;29;20030;-75
2023/05/12 09:34:19;;;;;;;5.90;3.03;;;;;;;18.55;69.01;101674.94;4935810;29;20030;-78
2023/05/12 09:36:54;;;;;;;4.70;3.08;;;;;;;18.49;71.85;101650.13;4936222;29;20081;-76
2023/05/12 09:39:19;;;;;;;5.43;3.05;;;;;;;18.77;71.24;101684.47;4936018;29;20065;-80
2023/05/12 09:41:46;;;;;;;5.75;3.38;;;;;;;18.59;69.54;101684.22;4936205;29;20092;-79
2023/05/12 09:44:15;;;;;;;4.35;3.50;;;;;;;18.38;71.42;101678.94;4936264;29;20031;-79
2023/05/12 09:46:41;;;;;;;4.50;3.50;;;;;;;18.37;71.14;101690.34;4936182;29;20155;-78
2023/05/12 09:49:06;;;;;;;5.50;3.95;;;;;;;18.26;69.71;101665.09;4935837;29;20075;-88
2023/05/12 09:51:32;;;;;;;6.38;3.60;;;;;;;18.12;70.94;101641.06;4935959;29;20055;-86
2023/05/12 09:53:58;;;;;;;4.60;3.38;;;;;;;18.30;70.18;101697.06;4941119;28;20368;-79
2023/05/12 09:56:26;;;;;;;7.70;3.90;;;;;;;17.98;70.36;101684.78;4955509;29;20043;-84
2023/05/12 09:59:02;;;;;;;6.38;3.55;;;;;;;17.38;70.95;101596.47;4955030;29;20030;-78
2023/05/12 10:01:27;;;;;;;7.60;3.60;;;;;;;18.15;71.96;101698.31;4954706;29;20126;-77
2023/05/12 10:03:55;;;;;;;6.03;3.38;;;;;;;18.37;70.94;101698.19;4954556;29;20027;-87
2023/05/12 10:06:32;;;;;;;5.72;3.55;;;;;;;18.66;70.49;101697.63;4954714;29;20023;-79
2023/05/12 10:09:30;;;;;;;6.13;3.53;;;;;;;18.83;69.51;101697.03;4955807;29;20034;-79
2023/05/12 10:11:56;;;;;;;4.97;3.15;;;;;;;18.99;67.17;101707.06;4955784;29;20029;-78
2023/05/12 10:14:22;;;;;;;5.60;3.50;;;;;;;18.70;63.54;101675.50;4955860;29;20031;-76
2023/05/12 10:16:49;;;;;;;7.05;3.65;;;;;;;19.11;66.27;101711.25;4954745;28;20034;-77
2023/05/12 10:19:14;;;;;;;6.57;3.67;;;;;;;18.92;64.30;101672.72;4954409;29;20151;-83
2023/05/12 10:21:43;;;;;;;5.15;3.17;;;;;;;19.09;66.80;101695.69;4954548;29;20125;-83
2023/05/12 10:24:09;;;;;;;5.30;3.30;;;;;;;19.28;67.51;101720.28;4954454;29;20482;-84
2023/05/12 10:26:36;;;;;;;5.45;3.30;;;;;;;18.88;64.87;101695.72;4954442;29;20055;-82
2023/05/12 10:29:02;;;;;;;4.78;3.55;;;;;;;19.00;64.17;101712.16;4954550;29;20031;-88
2023/05/12 10:31:28;;;;;;;6.90;3.35;;;;;;;19.00;65.49;101706.09;4954541;29;20106;-84
2023/05/12 10:33:57;;;;;;;6.40;3.33;;;;;;;19.02;64.71;101712.84;4954064;29;20398;-79
2023/05/12 10:36:23;;;;;;;5.88;3.42;;;;;;;18.87;62.30;101698.44;4954682;29;20040;-82
2023/05/12 10:38:49;;;;;;;5.03;3.35;;;;;;;18.87;66.03;101714.97;4954416;29;20027;-80
2023/05/12 10:41:15;;;;;;;4.25;3.13;;;;;;;18.72;64.26;101676.19;4954290;29;20380;-88
2023/05/12 10:43:44;;;;;;;4.93;3.00;;;;;;;18.70;63.79;101675.50;4954611;29;20075;-89
2023/05/12 10:46:12;;;;;;;4.47;3.28;;;;;;;19.10;64.19;101714.81;4954262;29;20468;-81
2023/05/12 10:49:04;;;;;;;6.03;3.40;;;;;;;19.31;66.72;101727.88;4953996;29;20110;-84
2023/05/12 10:51:44;;;;;;;5.53;3.20;;;;;;;19.23;63.95;101722.47;4954399;29;20122;-87
2023/05/12 10:54:17;;;;;;;5.72;3.42;;;;;;;19.03;64.32;101721.53;4954509;29;20383;-82
2023/05/12 10:56:44;;;;;;;4.32;3.10;;;;;;;18.91;63.47;101732.09;4954203;29;20411;-87
2023/05/12 10:59:22;;;;;;;5.65;4.00;;;;;;;18.82;64.17;101721.56;4954222;29;20086;-85
2023/05/12 11:02:01;;;;;;;6.13;3.40;;;;;;;18.97;66.34;101733.34;4954448;29;20086;-91
2023/05/12 11:04:50;;;;;;;9.20;3.53;;;;;;;19.12;64.92;101742.53;4954346;29;20019;-77
2023/05/12 11:07:19;;;;;;;7.03;3.40;;;;;;;18.90;64.22;101706.03;4954447;29;20035;-78
2023/05/12 11:09:46;;;;;;;10.35;4.15;;;;;;;18.95;63.30;101732.66;4954005;29;20032;-90